createdAt,value
2018-07-23T00:00:47.447Z,0.00
2018-07-23T00:02:40.241Z,0.00
2018-07-23T00:03:40.168Z,0.00
2018-07-23T00:05:32.954Z,0.00
2018-07-23T00:06:32.873Z,0.00
2018-07-23T00:08:25.659Z,0.00
2018-07-23T00:09:25.592Z,0.00
2018-07-23T00:11:18.388Z,0.00
2018-07-23T00:12:18.317Z,0.00
2018-07-23T00:14:11.094Z,0.00
2018-07-23T00:15:11.034Z,0.00
2018-07-23T00:17:03.860Z,0.00
2018-07-23T00:18:03.750Z,0.00
2018-07-23T00:19:56.527Z,0.00
2018-07-23T00:20:56.460Z,0.00
2018-07-23T00:22:49.265Z,0.00
2018-07-23T00:23:49.187Z,0.00
2018-07-23T00:25:41.982Z,0.00
2018-07-23T00:26:41.904Z,0.00
2018-07-23T00:28:34.729Z,0.00
2018-07-23T00:29:34.613Z,0.00
2018-07-23T00:31:27.410Z,0.00
2018-07-23T00:32:27.334Z,0.00
2018-07-23T00:34:20.129Z,0.00
2018-07-23T00:35:20.075Z,0.00
2018-07-23T00:37:12.847Z,0.00
2018-07-23T00:38:12.798Z,0.00
2018-07-23T00:40:05.580Z,0.00
2018-07-23T00:41:05.516Z,0.00
2018-07-23T00:42:58.300Z,0.00
2018-07-23T00:43:58.224Z,0.00
2018-07-23T00:45:51.009Z,0.00
2018-07-23T00:46:50.932Z,0.00
2018-07-23T00:48:43.743Z,0.00
2018-07-23T00:49:43.664Z,0.00
2018-07-23T00:51:36.458Z,0.00
2018-07-23T00:52:36.384Z,0.00
2018-07-23T00:54:29.160Z,0.00
2018-07-23T00:55:29.102Z,0.00
2018-07-23T00:57:21.884Z,0.00
2018-07-23T00:58:21.811Z,0.00
2018-07-23T01:00:14.597Z,0.00
2018-07-23T01:01:14.536Z,0.00
2018-07-23T01:03:07.309Z,0.00
2018-07-23T01:04:07.248Z,0.00
2018-07-23T01:06:00.031Z,0.00
2018-07-23T01:06:59.958Z,0.00
2018-07-23T01:08:52.747Z,0.00
2018-07-23T01:09:52.687Z,0.00
2018-07-23T01:11:45.476Z,0.00
2018-07-23T01:12:45.401Z,0.00
2018-07-23T01:14:38.184Z,0.00
2018-07-23T01:15:38.120Z,0.00
2018-07-23T01:17:30.907Z,0.00
2018-07-23T01:18:30.846Z,0.00
2018-07-23T01:20:23.618Z,0.00
2018-07-23T01:21:23.564Z,0.00
2018-07-23T01:23:16.366Z,0.00
2018-07-23T01:24:16.274Z,0.00
2018-07-23T01:26:09.085Z,0.00
2018-07-23T01:27:09.014Z,0.00
2018-07-23T01:29:01.812Z,0.00
2018-07-23T01:30:01.731Z,0.00
2018-07-23T01:31:54.527Z,0.00
2018-07-23T01:32:54.451Z,0.00
2018-07-23T01:34:47.217Z,0.00
2018-07-23T01:35:47.155Z,0.00
2018-07-23T01:37:39.994Z,0.00
2018-07-23T01:38:39.871Z,0.00
2018-07-23T01:40:32.656Z,0.00
2018-07-23T01:41:32.595Z,0.00
2018-07-23T01:43:25.411Z,0.00
2018-07-23T01:44:25.316Z,0.00
2018-07-23T01:46:18.106Z,0.00
2018-07-23T01:47:18.032Z,0.00
2018-07-23T01:49:10.851Z,0.00
2018-07-23T01:50:10.831Z,0.00
2018-07-23T01:52:03.557Z,0.00
2018-07-23T01:53:03.476Z,0.00
2018-07-23T01:54:56.264Z,0.00
2018-07-23T01:55:56.189Z,0.00
2018-07-23T01:57:48.982Z,0.00
2018-07-23T01:58:48.900Z,0.00
2018-07-23T02:00:41.683Z,0.00
2018-07-23T02:01:41.625Z,0.00
2018-07-23T02:03:34.431Z,0.00
2018-07-23T02:04:34.357Z,0.00
2018-07-23T02:06:27.180Z,0.00
2018-07-23T02:07:27.107Z,0.00
2018-07-23T02:09:19.870Z,0.00
2018-07-23T02:10:19.803Z,0.00
2018-07-23T02:12:12.614Z,0.00
2018-07-23T02:13:12.524Z,0.00
2018-07-23T02:15:05.310Z,0.00
2018-07-23T02:16:05.236Z,0.00
2018-07-23T02:17:58.017Z,0.00
2018-07-23T02:18:57.946Z,0.00
2018-07-23T02:20:50.747Z,0.00
2018-07-23T02:21:50.695Z,0.00
2018-07-23T02:23:43.476Z,0.00
2018-07-23T02:24:43.401Z,0.00
2018-07-23T02:26:36.223Z,0.00
2018-07-23T02:27:36.146Z,0.00
2018-07-23T02:29:28.926Z,0.00
2018-07-23T02:30:28.861Z,0.00
2018-07-23T02:32:21.655Z,4.00
2018-07-23T02:33:21.579Z,4.00
2018-07-23T02:35:14.429Z,0.00
2018-07-23T02:36:14.302Z,4.00
2018-07-23T02:38:07.101Z,0.00
2018-07-23T02:39:07.035Z,4.00
2018-07-23T02:40:59.812Z,4.00
2018-07-23T02:41:59.746Z,4.00
2018-07-23T02:43:52.536Z,8.00
2018-07-23T02:44:52.443Z,8.00
2018-07-23T02:46:45.270Z,8.00
2018-07-23T02:47:45.173Z,8.00
2018-07-23T02:49:37.969Z,12.00
2018-07-23T02:50:37.897Z,12.00
2018-07-23T02:52:30.735Z,16.00
2018-07-23T02:53:30.619Z,20.00
2018-07-23T02:55:23.400Z,20.00
2018-07-23T02:56:23.325Z,24.00
2018-07-23T02:58:16.101Z,28.00
2018-07-23T02:59:16.032Z,32.00
2018-07-23T03:01:08.796Z,40.00
2018-07-23T03:02:08.741Z,44.00
2018-07-23T03:04:01.527Z,52.00
2018-07-23T03:05:01.472Z,56.00
2018-07-23T03:06:54.266Z,64.00
2018-07-23T03:07:54.169Z,72.00
2018-07-23T03:09:46.973Z,80.00
2018-07-23T03:10:46.888Z,84.00
2018-07-23T03:12:39.694Z,96.00
2018-07-23T03:13:39.604Z,100.00
2018-07-23T03:15:32.396Z,116.00
2018-07-23T03:16:32.352Z,124.00
2018-07-23T03:18:25.103Z,140.00
2018-07-23T03:19:25.025Z,148.00
2018-07-23T03:21:17.813Z,160.00
2018-07-23T03:22:17.757Z,172.00
2018-07-23T03:24:10.533Z,188.00
2018-07-23T03:25:10.452Z,204.00
2018-07-23T03:27:03.219Z,220.00
2018-07-23T03:28:03.152Z,232.00
2018-07-23T03:29:55.937Z,260.00
2018-07-23T03:30:55.872Z,272.00
2018-07-23T03:32:48.645Z,300.00
2018-07-23T03:33:48.570Z,312.00
2018-07-23T03:35:41.344Z,344.00
2018-07-23T03:36:41.289Z,364.00
2018-07-23T03:38:34.073Z,404.00
2018-07-23T03:39:34.003Z,428.00
2018-07-23T03:41:26.768Z,476.00
2018-07-23T03:42:26.706Z,504.00
2018-07-23T03:44:19.518Z,556.00
2018-07-23T03:45:19.442Z,580.00
2018-07-23T03:47:12.241Z,632.00
2018-07-23T03:48:12.144Z,664.00
2018-07-23T03:50:04.925Z,712.00
2018-07-23T03:51:04.852Z,740.00
2018-07-23T03:52:57.638Z,788.00
2018-07-23T03:53:57.559Z,812.00
2018-07-23T03:55:50.342Z,856.00
2018-07-23T03:56:50.281Z,884.00
2018-07-23T03:58:43.060Z,936.00
2018-07-23T03:59:42.985Z,968.00
2018-07-23T04:01:35.765Z,1048.00
2018-07-23T04:02:35.707Z,1092.00
2018-07-23T04:04:28.488Z,1172.00
2018-07-23T04:05:28.413Z,1204.00
2018-07-23T04:07:21.237Z,1256.00
2018-07-23T04:08:21.144Z,1272.00
2018-07-23T04:10:13.927Z,1300.00
2018-07-23T04:11:13.858Z,1324.00
2018-07-23T04:13:06.647Z,1344.00
2018-07-23T04:14:06.582Z,1360.00
2018-07-23T04:15:59.368Z,1404.00
2018-07-23T04:16:59.303Z,1428.00
2018-07-23T04:18:52.109Z,1484.00
2018-07-23T04:19:52.039Z,1524.00
2018-07-23T04:21:44.828Z,1592.00
2018-07-23T04:22:44.753Z,1628.00
2018-07-23T04:24:37.554Z,1684.00
2018-07-23T04:25:37.487Z,1716.00
2018-07-23T04:27:30.332Z,1796.00
2018-07-23T04:28:30.236Z,1848.00
2018-07-23T04:30:23.063Z,1952.00
2018-07-23T04:31:22.972Z,2000.00
2018-07-23T04:33:15.780Z,2088.00
2018-07-23T04:34:15.717Z,2124.00
2018-07-23T04:36:08.464Z,2204.00
2018-07-23T04:37:08.394Z,2260.00
2018-07-23T04:39:01.177Z,2380.00
2018-07-23T04:40:01.098Z,2456.00
2018-07-23T04:41:53.884Z,2568.00
2018-07-23T04:42:53.816Z,2620.00
2018-07-23T04:44:46.613Z,2712.00
2018-07-23T04:45:46.524Z,2764.00
2018-07-23T04:47:39.297Z,2856.00
2018-07-23T04:48:39.233Z,2904.00
2018-07-23T04:50:32.054Z,3004.00
2018-07-23T04:51:31.950Z,3060.00
2018-07-23T04:53:24.754Z,3176.00
2018-07-23T04:54:24.684Z,3244.00
2018-07-23T04:56:17.484Z,3352.00
2018-07-23T04:57:17.408Z,3392.00
2018-07-23T04:59:10.197Z,3436.00
2018-07-23T05:00:10.129Z,3456.00
2018-07-23T05:02:02.943Z,3500.00
2018-07-23T05:03:02.873Z,3532.00
2018-07-23T05:04:55.920Z,3592.00
2018-07-23T05:05:55.582Z,3628.00
2018-07-23T05:07:48.379Z,3712.00
2018-07-23T05:08:48.308Z,3764.00
2018-07-23T05:10:41.107Z,3884.00
2018-07-23T05:11:41.037Z,4464.00
2018-07-23T05:13:33.825Z,9856.00
2018-07-23T05:14:33.760Z,11572.00
2018-07-23T05:16:26.563Z,11596.00
2018-07-23T05:17:26.501Z,11292.00
2018-07-23T05:19:19.276Z,12864.00
2018-07-23T05:20:19.228Z,12320.00
2018-07-23T05:22:11.970Z,13120.00
2018-07-23T05:23:11.911Z,13760.00
2018-07-23T05:25:04.709Z,16096.00
2018-07-23T05:26:04.657Z,17152.00
2018-07-23T05:27:57.446Z,13248.00
2018-07-23T05:28:57.382Z,13440.00
2018-07-23T05:30:50.194Z,13568.00
2018-07-23T05:31:50.167Z,13536.00
2018-07-23T05:33:42.949Z,13664.00
2018-07-23T05:34:42.879Z,14304.00
2018-07-23T05:36:35.654Z,14944.00
2018-07-23T05:37:35.602Z,15200.00
2018-07-23T05:39:28.400Z,14304.00
2018-07-23T05:40:28.339Z,14176.00
2018-07-23T05:42:21.146Z,14304.00
2018-07-23T05:43:21.096Z,14848.00
2018-07-23T05:45:13.922Z,16480.00
2018-07-23T05:46:13.846Z,18496.00
2018-07-23T05:48:06.629Z,24032.00
2018-07-23T05:49:06.589Z,26176.00
2018-07-23T05:50:59.426Z,25440.00
2018-07-23T05:51:59.352Z,26432.00
2018-07-23T05:53:52.161Z,30304.00
2018-07-23T05:54:52.101Z,32448.00
2018-07-23T05:56:44.905Z,29120.00
2018-07-23T05:57:44.935Z,24448.00
2018-07-23T05:59:37.671Z,22016.00
2018-07-23T06:00:37.590Z,21248.00
2018-07-23T06:02:30.386Z,18208.00
2018-07-23T06:03:30.345Z,17696.00
2018-07-23T06:05:23.154Z,16896.00
2018-07-23T06:06:23.144Z,16544.00
2018-07-23T06:08:15.936Z,16160.00
2018-07-23T06:09:15.857Z,16160.00
2018-07-23T06:11:08.667Z,16224.00
2018-07-23T06:12:08.599Z,16416.00
2018-07-23T06:14:01.433Z,16608.00
2018-07-23T06:15:01.358Z,16512.00
2018-07-23T06:16:54.145Z,16320.00
2018-07-23T06:17:54.125Z,16288.00
2018-07-23T06:19:46.943Z,16224.00
2018-07-23T06:20:46.848Z,16352.00
2018-07-23T06:22:39.648Z,16576.00
2018-07-23T06:23:39.604Z,16672.00
2018-07-23T06:25:32.429Z,16864.00
2018-07-23T06:26:32.367Z,17120.00
2018-07-23T06:28:25.185Z,17344.00
2018-07-23T06:29:25.132Z,17568.00
2018-07-23T06:31:17.990Z,17664.00
2018-07-23T06:32:17.927Z,17728.00
2018-07-23T06:34:10.817Z,18016.00
2018-07-23T06:35:10.687Z,18080.00
2018-07-23T06:37:03.500Z,18240.00
2018-07-23T06:38:03.449Z,18336.00
2018-07-23T06:39:56.270Z,18656.00
2018-07-23T06:40:56.208Z,18848.00
2018-07-23T06:42:49.028Z,19168.00
2018-07-23T06:43:48.968Z,19264.00
2018-07-23T06:45:41.822Z,19584.00
2018-07-23T06:46:41.814Z,19616.00
2018-07-23T06:48:34.528Z,19712.00
2018-07-23T06:49:34.480Z,19680.00
2018-07-23T06:51:27.330Z,19904.00
2018-07-23T06:52:27.260Z,19968.00
2018-07-23T06:54:20.092Z,20128.00
2018-07-23T06:55:20.035Z,20224.00
2018-07-23T06:57:12.829Z,20320.00
2018-07-23T06:58:12.817Z,20544.00
2018-07-23T07:00:05.609Z,20512.00
2018-07-23T07:01:05.568Z,20736.00
2018-07-23T07:02:58.382Z,20640.00
2018-07-23T07:03:58.327Z,20800.00
2018-07-23T07:05:51.159Z,21312.00
2018-07-23T07:06:51.097Z,22112.00
2018-07-23T07:08:44.531Z,30816.00
2018-07-23T07:09:44.481Z,38720.00
2018-07-23T07:11:37.288Z,44768.00
2018-07-23T07:12:37.226Z,48352.00
2018-07-23T07:14:30.068Z,50272.00
2018-07-23T07:15:30.003Z,52064.00
2018-07-23T07:17:22.836Z,52640.00
2018-07-23T07:18:22.792Z,51616.00
2018-07-23T07:20:15.637Z,49312.00
2018-07-23T07:21:15.554Z,50112.00
2018-07-23T07:23:08.449Z,51872.00
2018-07-23T07:24:08.427Z,52672.00
2018-07-23T07:26:01.760Z,54304.00
2018-07-23T07:27:01.703Z,55488.00
2018-07-23T07:28:54.511Z,57696.00
2018-07-23T07:29:54.497Z,55712.00
2018-07-23T07:31:47.304Z,57984.00
2018-07-23T07:32:47.249Z,57632.00
2018-07-23T07:34:40.097Z,58560.00
2018-07-23T07:35:40.032Z,55360.00
2018-07-23T07:37:32.840Z,56512.00
2018-07-23T07:38:32.805Z,54752.00
2018-07-23T07:40:25.631Z,54912.00
2018-07-23T07:41:25.623Z,54368.00
2018-07-23T07:43:18.397Z,55040.00
2018-07-23T07:44:18.353Z,52032.00
2018-07-23T07:46:11.204Z,48288.00
2018-07-23T07:47:11.109Z,48736.00
2018-07-23T07:49:03.935Z,49856.00
2018-07-23T07:50:03.892Z,48896.00
2018-07-23T07:51:56.741Z,50752.00
2018-07-23T07:52:56.666Z,53760.00
2018-07-23T07:54:49.503Z,51520.00
2018-07-23T07:55:49.458Z,52992.00
2018-07-23T07:57:42.299Z,52352.00
2018-07-23T07:58:42.259Z,52960.00
2018-07-23T08:00:35.070Z,52352.00
2018-07-23T08:01:35.016Z,52896.00
2018-07-23T08:03:27.820Z,50976.00
2018-07-23T08:04:27.792Z,49504.00
2018-07-23T08:06:20.602Z,49824.00
2018-07-23T08:07:20.550Z,49856.00
2018-07-23T08:09:13.358Z,48672.00
2018-07-23T08:10:13.327Z,50016.00
2018-07-23T08:12:06.147Z,49248.00
2018-07-23T08:13:06.092Z,48704.00
2018-07-23T08:14:58.903Z,51328.00
2018-07-23T08:15:58.926Z,51264.00
2018-07-23T08:17:51.754Z,54144.00
2018-07-23T08:18:51.638Z,54880.00
2018-07-23T08:20:44.522Z,55808.00
2018-07-23T08:21:44.456Z,54656.00
2018-07-23T08:23:37.301Z,54720.00
2018-07-23T08:24:37.250Z,54272.00
2018-07-23T08:26:30.074Z,51872.00
2018-07-23T08:27:30.020Z,55136.00
2018-07-23T08:29:22.849Z,56704.00
2018-07-23T08:30:22.811Z,58464.00
2018-07-23T08:32:15.678Z,60928.00
2018-07-23T08:33:15.548Z,60992.00
2018-07-23T08:35:08.374Z,61088.00
2018-07-23T08:36:08.328Z,61024.00
2018-07-23T08:38:01.170Z,63456.00
2018-07-23T08:39:01.116Z,63808.00
2018-07-23T08:40:53.978Z,61440.00
2018-07-23T08:41:53.893Z,60224.00
2018-07-23T08:43:46.711Z,60096.00
2018-07-23T08:44:46.672Z,59680.00
2018-07-23T08:46:39.490Z,62720.00
2018-07-23T08:47:39.427Z,64480.00
2018-07-23T08:49:32.258Z,66176.00
2018-07-23T08:50:32.211Z,65952.00
2018-07-23T08:52:25.040Z,67680.00
2018-07-23T08:53:24.984Z,66368.00
2018-07-23T08:55:17.795Z,66784.00
2018-07-23T08:56:17.757Z,65664.00
2018-07-23T08:58:10.579Z,65568.00
2018-07-23T08:59:10.523Z,65440.00
2018-07-23T09:01:03.359Z,53184.00
2018-07-23T09:02:03.311Z,10260.00
2018-07-23T09:03:56.159Z,77184.00
2018-07-23T09:04:56.135Z,60512.00
2018-07-23T09:06:48.944Z,39328.00
2018-07-23T09:07:48.873Z,54560.00
2018-07-23T09:09:41.688Z,65952.00
2018-07-23T09:10:41.638Z,64288.00
2018-07-23T09:12:34.510Z,63488.00
2018-07-23T09:13:34.423Z,63584.00
2018-07-23T09:15:27.274Z,62624.00
2018-07-23T09:16:27.192Z,62176.00
2018-07-23T09:18:20.042Z,64704.00
2018-07-23T09:19:20.131Z,65088.00
2018-07-23T09:21:12.815Z,63488.00
2018-07-23T09:22:12.802Z,64832.00
2018-07-23T09:24:05.616Z,62304.00
2018-07-23T09:25:05.579Z,63936.00
2018-07-23T09:26:58.372Z,60096.00
2018-07-23T09:27:58.367Z,61376.00
2018-07-23T09:29:51.141Z,61536.00
2018-07-23T09:30:51.144Z,61664.00
2018-07-23T09:32:43.943Z,63200.00
2018-07-23T09:33:43.884Z,60896.00
2018-07-23T09:35:36.704Z,58304.00
2018-07-23T09:36:36.653Z,58048.00
2018-07-23T09:38:29.532Z,60032.00
2018-07-23T09:39:29.477Z,60000.00
2018-07-23T09:41:22.346Z,62784.00
2018-07-23T09:42:22.305Z,61888.00
2018-07-23T09:44:15.110Z,60320.00
2018-07-23T09:45:15.062Z,59040.00
2018-07-23T09:47:07.936Z,58912.00
2018-07-23T09:48:07.894Z,57152.00
2018-07-23T09:50:00.701Z,58304.00
2018-07-23T09:51:00.653Z,57600.00
2018-07-23T09:52:53.498Z,58080.00
2018-07-23T09:53:53.424Z,57184.00
2018-07-23T09:55:46.261Z,58112.00
2018-07-23T09:56:46.205Z,57728.00
2018-07-23T09:58:39.047Z,57856.00
2018-07-23T09:59:38.990Z,57856.00
2018-07-23T10:01:31.798Z,55296.00
2018-07-23T10:02:31.765Z,56128.00
2018-07-23T10:04:24.553Z,55392.00
2018-07-23T10:05:24.509Z,56576.00
2018-07-23T10:07:17.323Z,57152.00
2018-07-23T10:08:17.261Z,56288.00
2018-07-23T10:10:10.066Z,55840.00
2018-07-23T10:11:10.024Z,56448.00
2018-07-23T10:13:02.849Z,57024.00
2018-07-23T10:14:02.791Z,56928.00
2018-07-23T10:15:55.606Z,57984.00
2018-07-23T10:16:55.584Z,58528.00
2018-07-23T10:18:48.383Z,57696.00
2018-07-23T10:19:48.339Z,58240.00
2018-07-23T10:21:41.165Z,58240.00
2018-07-23T10:22:41.119Z,57696.00
2018-07-23T10:24:33.917Z,56640.00
2018-07-23T10:25:33.873Z,56768.00
2018-07-23T10:27:26.749Z,53600.00
2018-07-23T10:28:26.630Z,54336.00
2018-07-23T10:30:19.444Z,53088.00
2018-07-23T10:31:19.390Z,53888.00
2018-07-23T10:33:12.236Z,51232.00
2018-07-23T10:34:12.174Z,52160.00
2018-07-23T10:36:04.982Z,52128.00
2018-07-23T10:37:04.940Z,51392.00
2018-07-23T10:38:57.754Z,51200.00
2018-07-23T10:39:57.729Z,50016.00
2018-07-23T10:41:50.531Z,51712.00
2018-07-23T10:42:50.467Z,0.00
2018-07-23T10:44:43.352Z,17760.00
2018-07-23T10:45:43.302Z,46944.00
2018-07-23T10:47:36.147Z,21664.00
2018-07-23T10:48:36.083Z,46688.00
2018-07-23T10:50:28.901Z,49952.00
2018-07-23T10:51:28.965Z,61472.00
2018-07-23T10:53:21.718Z,47104.00
2018-07-23T10:54:21.652Z,43968.00
2018-07-23T10:56:14.488Z,39904.00
2018-07-23T10:57:14.463Z,11968.00
2018-07-23T10:59:07.283Z,16704.00
2018-07-23T11:00:07.215Z,39264.00
2018-07-23T11:02:00.029Z,37280.00
2018-07-23T11:02:59.965Z,55008.00
2018-07-23T11:04:52.797Z,40864.00
2018-07-23T11:05:52.744Z,21376.00
2018-07-23T11:07:45.560Z,18336.00
2018-07-23T11:08:45.499Z,6296.00
2018-07-23T11:10:38.449Z,10736.00
2018-07-23T11:11:38.269Z,12700.00
2018-07-23T11:13:31.160Z,38720.00
2018-07-23T11:14:31.053Z,15040.00
2018-07-23T11:16:23.859Z,35328.00
2018-07-23T11:17:23.817Z,35392.00
2018-07-23T11:19:16.737Z,60192.00
2018-07-23T11:20:16.621Z,33248.00
2018-07-23T11:22:09.442Z,13440.00
2018-07-23T11:23:09.370Z,14176.00
2018-07-23T11:25:38.219Z,12640.00
2018-07-23T11:26:02.151Z,13792.00
2018-07-23T11:27:54.961Z,27328.00
2018-07-23T11:28:54.913Z,9088.00
2018-07-23T11:30:47.740Z,9056.00
2018-07-23T11:31:47.687Z,8108.00
2018-07-23T11:33:40.506Z,24032.00
2018-07-23T11:34:40.446Z,27680.00
2018-07-23T11:36:33.275Z,29856.00
2018-07-23T11:37:33.200Z,30400.00
2018-07-23T11:39:26.039Z,28480.00
2018-07-23T11:40:26.000Z,27008.00
2018-07-23T11:42:18.833Z,26464.00
2018-07-23T11:43:18.804Z,26304.00
2018-07-23T11:45:11.595Z,27040.00
2018-07-23T11:46:24.426Z,26592.00
2018-07-23T11:48:04.365Z,28576.00
2018-07-23T11:49:04.266Z,27648.00
2018-07-23T11:50:57.074Z,25664.00
2018-07-23T11:51:57.040Z,25088.00
2018-07-23T11:53:49.832Z,24960.00
2018-07-23T11:54:49.774Z,25984.00
2018-07-23T11:56:42.571Z,25920.00
2018-07-23T11:57:42.543Z,25248.00
2018-07-23T11:59:35.336Z,24000.00
2018-07-23T12:00:35.298Z,24128.00
2018-07-23T12:02:28.094Z,8928.00
2018-07-23T12:03:28.074Z,4960.00
2018-07-23T12:05:20.862Z,4676.00
2018-07-23T12:06:20.803Z,4600.00
2018-07-23T12:08:13.708Z,4572.00
2018-07-23T12:09:13.551Z,4496.00
2018-07-23T12:11:06.371Z,4336.00
2018-07-23T12:12:06.303Z,4276.00
2018-07-23T12:13:59.119Z,4148.00
2018-07-23T12:14:59.046Z,4080.00
2018-07-23T12:16:51.939Z,4016.00
2018-07-23T12:17:51.827Z,3984.00
2018-07-23T12:19:44.651Z,3952.00
2018-07-23T12:20:44.559Z,4204.00
2018-07-23T12:22:37.397Z,3936.00
2018-07-23T12:23:37.312Z,3940.00
2018-07-23T12:25:30.152Z,3980.00
2018-07-23T12:26:30.124Z,3948.00
2018-07-23T12:28:22.911Z,3924.00
2018-07-23T12:29:22.848Z,4132.00
2018-07-23T12:31:15.638Z,4068.00
2018-07-23T12:32:15.577Z,4000.00
2018-07-23T12:34:08.543Z,3872.00
2018-07-23T12:35:08.340Z,3920.00
2018-07-23T12:37:01.107Z,3892.00
2018-07-23T12:38:01.040Z,3848.00
2018-07-23T12:39:54.009Z,3876.00
2018-07-23T12:40:53.907Z,3724.00
2018-07-23T12:42:46.702Z,3768.00
2018-07-23T12:43:46.637Z,3804.00
2018-07-23T12:45:39.431Z,3804.00
2018-07-23T12:46:39.374Z,3756.00
2018-07-23T12:48:32.171Z,3776.00
2018-07-23T12:49:32.118Z,3760.00
2018-07-23T12:51:24.924Z,3700.00
2018-07-23T12:52:24.878Z,3784.00
2018-07-23T12:54:17.675Z,3832.00
2018-07-23T12:55:17.594Z,3912.00
2018-07-23T12:57:10.384Z,3992.00
2018-07-23T12:58:10.335Z,3896.00
2018-07-23T13:00:03.245Z,3784.00
2018-07-23T13:01:03.091Z,3788.00
2018-07-23T13:02:56.003Z,3952.00
2018-07-23T13:03:55.974Z,3824.00
2018-07-23T13:05:48.870Z,4060.00
2018-07-23T13:06:48.769Z,4024.00
2018-07-23T13:08:41.593Z,3832.00
2018-07-23T13:09:41.498Z,3776.00
2018-07-23T13:11:34.299Z,3732.00
2018-07-23T13:12:34.232Z,3728.00
2018-07-23T13:14:27.061Z,3716.00
2018-07-23T13:15:26.984Z,3676.00
2018-07-23T13:17:19.794Z,3752.00
2018-07-23T13:18:19.809Z,3796.00
2018-07-23T13:20:12.577Z,3744.00
2018-07-23T13:21:12.477Z,3720.00
2018-07-23T13:23:05.326Z,3692.00
2018-07-23T13:24:05.247Z,3700.00
2018-07-23T13:25:58.079Z,3672.00
2018-07-23T13:26:58.021Z,3680.00
2018-07-23T13:28:50.839Z,3640.00
2018-07-23T13:29:50.801Z,3660.00
2018-07-23T13:31:43.580Z,3744.00
2018-07-23T13:32:43.530Z,3752.00
2018-07-23T13:34:36.398Z,3724.00
2018-07-23T13:35:36.294Z,3692.00
2018-07-23T13:37:29.084Z,3656.00
2018-07-23T13:38:29.029Z,3664.00
2018-07-23T13:40:21.873Z,3640.00
2018-07-23T13:41:21.782Z,3656.00
2018-07-23T13:43:14.589Z,3660.00
2018-07-23T13:44:14.521Z,3680.00
2018-07-23T13:46:07.348Z,3668.00
2018-07-23T13:47:07.272Z,3660.00
2018-07-23T13:49:00.067Z,3636.00
2018-07-23T13:50:00.009Z,3616.00
2018-07-23T13:51:52.887Z,3616.00
2018-07-23T13:52:52.750Z,3608.00
2018-07-23T13:54:45.549Z,3640.00
2018-07-23T13:55:45.489Z,3628.00
2018-07-23T13:57:38.288Z,3604.00
2018-07-23T13:58:38.231Z,3576.00
2018-07-23T14:00:31.058Z,3600.00
2018-07-23T14:01:30.976Z,3572.00
2018-07-23T14:03:23.781Z,3536.00
2018-07-23T14:04:23.743Z,3556.00
2018-07-23T14:06:16.559Z,3556.00
2018-07-23T14:07:16.454Z,3552.00
2018-07-23T14:09:09.241Z,3556.00
2018-07-23T14:10:09.171Z,3576.00
2018-07-23T14:12:01.991Z,3532.00
2018-07-23T14:13:01.922Z,3572.00
2018-07-23T14:14:54.729Z,3592.00
2018-07-23T14:15:54.669Z,3588.00
2018-07-23T14:17:47.442Z,3556.00
2018-07-23T14:18:47.391Z,3536.00
2018-07-23T14:20:40.185Z,3540.00
2018-07-23T14:21:40.118Z,3548.00
2018-07-23T14:23:32.929Z,3540.00
2018-07-23T14:24:32.874Z,3540.00
2018-07-23T14:26:25.666Z,3544.00
2018-07-23T14:27:25.595Z,3532.00
2018-07-23T14:29:18.394Z,3532.00
2018-07-23T14:30:18.398Z,3540.00
2018-07-23T14:32:11.114Z,3532.00
2018-07-23T14:33:11.083Z,3524.00
2018-07-23T14:35:03.862Z,3484.00
2018-07-23T14:36:03.794Z,3500.00
2018-07-23T14:37:56.682Z,3552.00
2018-07-23T14:38:56.537Z,3536.00
2018-07-23T14:40:49.331Z,3532.00
2018-07-23T14:41:49.268Z,3544.00
2018-07-23T14:43:42.049Z,3540.00
2018-07-23T14:44:41.990Z,3520.00
2018-07-23T14:46:34.835Z,3508.00
2018-07-23T14:47:34.770Z,3528.00
2018-07-23T14:49:27.655Z,3444.00
2018-07-23T14:50:27.527Z,3464.00
2018-07-23T14:52:20.328Z,3488.00
2018-07-23T14:53:20.263Z,3452.00
2018-07-23T14:55:13.072Z,3508.00
2018-07-23T14:56:13.004Z,3520.00
2018-07-23T14:58:05.833Z,3488.00
2018-07-23T14:59:05.764Z,3480.00
2018-07-23T15:00:58.578Z,3464.00
2018-07-23T15:01:58.505Z,3440.00
2018-07-23T15:03:51.321Z,3420.00
2018-07-23T15:04:51.345Z,3404.00
2018-07-23T15:06:44.076Z,3360.00
2018-07-23T15:07:44.002Z,3352.00
2018-07-23T15:09:36.787Z,3352.00
2018-07-23T15:10:36.715Z,3352.00
2018-07-23T15:12:29.553Z,3344.00
2018-07-23T15:13:29.479Z,3324.00
2018-07-23T15:15:22.296Z,3324.00
2018-07-23T15:16:22.222Z,3320.00
2018-07-23T15:18:15.029Z,3328.00
2018-07-23T15:19:14.931Z,3312.00
2018-07-23T15:21:07.740Z,3312.00
2018-07-23T15:22:07.712Z,3316.00
2018-07-23T15:24:00.536Z,3292.00
2018-07-23T15:25:00.477Z,3272.00
2018-07-23T15:26:53.328Z,3264.00
2018-07-23T15:27:53.253Z,3256.00
2018-07-23T15:29:46.052Z,3212.00
2018-07-23T15:30:45.997Z,3216.00
2018-07-23T15:32:38.944Z,3192.00
2018-07-23T15:33:38.698Z,3220.00
2018-07-23T15:35:31.530Z,3184.00
2018-07-23T15:36:31.451Z,3172.00
2018-07-23T15:38:24.293Z,3140.00
2018-07-23T15:39:24.188Z,3148.00
2018-07-23T15:41:17.087Z,3132.00
2018-07-23T15:42:16.938Z,3108.00
2018-07-23T15:44:09.800Z,3072.00
2018-07-23T15:45:09.790Z,3044.00
2018-07-23T15:47:02.552Z,3044.00
2018-07-23T15:48:02.546Z,3040.00
2018-07-23T15:49:55.275Z,3028.00
2018-07-23T15:50:55.289Z,3028.00
2018-07-23T15:52:47.971Z,2992.00
2018-07-23T15:53:47.901Z,2996.00
2018-07-23T15:55:40.712Z,2976.00
2018-07-23T15:56:40.691Z,2968.00
2018-07-23T15:58:33.526Z,2940.00
2018-07-23T15:59:33.466Z,2928.00
2018-07-23T16:01:26.274Z,2936.00
2018-07-23T16:02:26.185Z,2916.00
2018-07-23T16:04:18.954Z,2888.00
2018-07-23T16:05:18.934Z,2884.00
2018-07-23T16:07:11.693Z,2908.00
2018-07-23T16:08:11.621Z,2908.00
2018-07-23T16:10:04.472Z,2884.00
2018-07-23T16:11:04.377Z,2868.00
2018-07-23T16:12:57.163Z,2868.00
2018-07-23T16:13:57.107Z,2856.00
2018-07-23T16:15:49.919Z,2824.00
2018-07-23T16:16:49.853Z,2808.00
2018-07-23T16:18:42.652Z,2808.00
2018-07-23T16:19:42.652Z,2804.00
2018-07-23T16:21:35.376Z,2800.00
2018-07-23T16:22:35.346Z,2788.00
2018-07-23T16:24:28.135Z,2776.00
2018-07-23T16:25:28.057Z,2752.00
2018-07-23T16:27:20.910Z,2732.00
2018-07-23T16:28:20.862Z,2732.00
2018-07-23T16:30:13.627Z,2700.00
2018-07-23T16:31:13.580Z,2680.00
2018-07-23T16:33:06.366Z,2664.00
2018-07-23T16:34:06.302Z,2664.00
2018-07-23T16:35:59.095Z,2628.00
2018-07-23T16:36:59.018Z,2612.00
2018-07-23T16:38:51.884Z,2588.00
2018-07-23T16:39:51.782Z,2556.00
2018-07-23T16:41:44.559Z,2544.00
2018-07-23T16:42:44.493Z,2516.00
2018-07-23T16:44:37.387Z,2484.00
2018-07-23T16:45:37.308Z,2476.00
2018-07-23T16:47:30.076Z,2476.00
2018-07-23T16:48:30.059Z,2480.00
2018-07-23T16:50:22.830Z,2444.00
2018-07-23T16:51:22.766Z,2628.00
2018-07-23T16:53:15.563Z,2888.00
2018-07-23T16:54:15.618Z,2732.00
2018-07-23T16:56:08.288Z,2324.00
2018-07-23T16:57:08.214Z,2308.00
2018-07-23T16:59:01.026Z,2264.00
2018-07-23T17:00:01.035Z,2260.00
2018-07-23T17:01:53.786Z,2212.00
2018-07-23T17:02:53.710Z,2196.00
2018-07-23T17:04:46.481Z,2160.00
2018-07-23T17:05:46.443Z,2148.00
2018-07-23T17:07:39.220Z,2128.00
2018-07-23T17:08:39.157Z,2104.00
2018-07-23T17:10:31.930Z,2072.00
2018-07-23T17:11:31.869Z,2056.00
2018-07-23T17:13:24.683Z,2040.00
2018-07-23T17:14:24.609Z,2032.00
2018-07-23T17:16:17.436Z,2000.00
2018-07-23T17:17:17.345Z,1976.00
2018-07-23T17:19:10.220Z,1980.00
2018-07-23T17:20:10.077Z,2164.00
2018-07-23T17:22:02.904Z,2416.00
2018-07-23T17:23:02.841Z,2556.00
2018-07-23T17:24:55.618Z,2508.00
2018-07-23T17:25:55.573Z,2224.00
2018-07-23T17:27:48.361Z,1772.00
2018-07-23T17:28:48.287Z,1744.00
2018-07-23T17:30:41.429Z,1712.00
2018-07-23T17:31:41.027Z,1696.00